Time,TemperatureF,DewpointF,PressureIn,WindDirection,WindDirectionDegrees,WindSpeedMPH,WindSpeedGustMPH,Humidity,HourlyPrecipIn,Conditions,Clouds,dailyrainin,SolarRadiationWatts/m^2,SoftwareType,DateUTC
2013-10-17 00:02:00,41.0,40.0,-100.00,SE,127,0.0,1.0,98,0.00,,,0.00,0.000000,,2013-10-17 07:02:00,
2013-10-17 00:11:00,41.0,40.0,-100.00,SE,127,0.0,1.0,98,0.00,,,0.00,0.000000,,2013-10-17 07:11:00,
2013-10-17 00:22:00,41.0,40.0,-100.00,SE,127,0.0,1.0,98,0.00,,,0.00,0.000000,,2013-10-17 07:22:00,
2013-10-17 00:31:00,41.0,40.0,-100.00,SE,127,0.0,1.0,98,0.00,,,0.00,0.000000,,2013-10-17 07:31:00,
2013-10-17 00:52:00,41.0,40.0,-100.00,ENE,71,0.0,0.0,98,0.00,,,0.00,0.000000,,2013-10-17 07:52:00,
2013-10-17 01:02:00,41.0,40.0,-100.00,ENE,71,0.0,0.0,98,0.00,,,0.00,0.000000,,2013-10-17 08:02:00,
2013-10-17 01:11:00,41.0,40.0,-100.00,ENE,71,0.0,0.0,98,0.00,,,0.00,0.000000,,2013-10-17 08:11:00,
2013-10-17 01:21:00,41.0,40.0,-100.00,ENE,71,0.0,0.0,98,0.00,,,0.00,0.000000,,2013-10-17 08:21:00,
2013-10-17 01:32:00,41.0,40.0,-100.00,ENE,71,0.0,0.0,98,0.00,,,0.00,0.000000,,2013-10-17 08:32:00,
2013-10-17 01:33:00,39.0,38.0,-100.00,NNW,345,1.0,2.0,98,0.00,,,0.00,0.000000,,2013-10-17 08:33:00,
2013-10-17 02:11:00,39.0,38.0,-100.00,NNW,345,1.0,2.0,98,0.00,,,0.00,0.000000,,2013-10-17 09:11:00,
2013-10-17 02:21:00,39.0,38.0,-100.00,NNW,345,1.0,2.0,98,0.00,,,0.00,0.000000,,2013-10-17 09:21:00,
2013-10-17 02:53:00,39.0,38.0,-100.00,NNW,348,0.0,0.0,98,0.00,,,0.00,0.000000,,2013-10-17 09:53:00,
2013-10-17 03:03:00,39.0,38.0,-100.00,NNW,348,0.0,0.0,98,0.00,,,0.00,0.000000,,2013-10-17 10:03:00,
2013-10-17 03:12:00,39.0,38.0,-100.00,NNW,348,0.0,0.0,98,0.00,,,0.00,0.000000,,2013-10-17 10:12:00,
2013-10-17 03:23:00,39.0,38.0,-100.00,NNW,348,0.0,0.0,98,0.00,,,0.00,0.000000,,2013-10-17 10:23:00,
2013-10-17 03:32:00,39.0,38.0,-100.00,NNW,348,0.0,0.0,98,0.00,,,0.00,0.000000,,2013-10-17 10:32:00,
2013-10-17 03:33:00,38.0,37.0,-100.00,NNE,26,0.0,0.0,98,0.00,,,0.00,0.000000,,2013-10-17 10:33:00,
2013-10-17 03:53:00,38.0,37.0,-100.00,NNE,26,0.0,0.0,98,0.00,,,0.00,0.000000,,2013-10-17 10:53:00,
2013-10-17 04:02:00,38.0,37.0,-100.00,NNE,26,0.0,0.0,98,0.00,,,0.00,0.000000,,2013-10-17 11:02:00,
2013-10-17 04:11:00,38.0,37.0,-100.00,NNE,26,0.0,0.0,98,0.00,,,0.00,0.000000,,2013-10-17 11:11:00,
2013-10-17 04:22:00,38.0,37.0,-100.00,NNE,26,0.0,0.0,98,0.00,,,0.00,0.000000,,2013-10-17 11:22:00,
2013-10-17 05:12:00,37.0,36.0,-100.00,North,6,0.0,1.0,98,0.00,,,0.00,0.000000,,2013-10-17 12:12:00,
2013-10-17 06:11:00,37.0,36.0,-100.00,North,6,0.0,1.0,98,0.00,,,0.00,0.000000,,2013-10-17 13:11:00,
2013-10-17 06:52:00,37.0,36.0,-100.00,NW,309,0.0,2.0,98,0.00,,,0.00,0.000000,,2013-10-17 13:52:00,
2013-10-17 07:02:00,37.0,36.0,-100.00,NW,309,0.0,2.0,98,0.00,,,0.00,0.000000,,2013-10-17 14:02:00,
2013-10-17 07:11:00,37.0,36.0,-100.00,NW,309,0.0,2.0,98,0.00,,,0.00,0.000000,,2013-10-17 14:11:00,
2013-10-17 07:21:00,37.0,36.0,-100.00,NW,309,0.0,2.0,98,0.00,,,0.00,0.000000,,2013-10-17 14:21:00,
2013-10-17 07:31:00,37.0,36.0,-100.00,NW,309,0.0,2.0,98,0.00,,,0.00,0.000000,,2013-10-17 14:31:00,
2013-10-17 07:33:00,38.0,37.0,-100.00,WNW,283,0.0,0.0,98,0.00,,,0.00,0.000000,,2013-10-17 14:33:00,
2013-10-17 07:52:00,38.0,37.0,-100.00,WNW,283,0.0,0.0,98,0.00,,,0.00,0.000000,,2013-10-17 14:52:00,
2013-10-17 08:02:00,38.0,37.0,-100.00,WNW,283,0.0,0.0,98,0.00,,,0.00,0.000000,,2013-10-17 15:02:00,
2013-10-17 08:11:00,38.0,37.0,-100.00,WNW,283,0.0,0.0,98,0.00,,,0.00,0.000000,,2013-10-17 15:11:00,
2013-10-17 08:22:00,38.0,37.0,-100.00,WNW,283,0.0,0.0,98,0.00,,,0.00,0.000000,,2013-10-17 15:22:00,
2013-10-17 08:33:00,39.0,38.0,-100.00,North,359,0.0,3.0,98,0.01,,,0.01,14.000000,,2013-10-17 15:33:00,
2013-10-17 09:12:00,39.0,38.0,-100.00,North,359,0.0,3.0,98,0.01,,,0.01,14.000000,,2013-10-17 16:12:00,
2013-10-17 09:23:00,39.0,38.0,-100.00,North,359,0.0,3.0,98,0.01,,,0.01,14.000000,,2013-10-17 16:23:00,
2013-10-17 09:33:00,42.0,41.0,-100.00,North,3,0.0,0.0,98,0.00,,,-99.99,73.000000,,2013-10-17 16:33:00,
2013-10-17 09:53:00,42.0,41.0,-100.00,North,3,0.0,0.0,98,0.00,,,-99.99,73.000000,,2013-10-17 16:53:00,
2013-10-17 10:02:00,42.0,41.0,-100.00,North,3,0.0,0.0,98,0.00,,,-99.99,73.000000,,2013-10-17 17:02:00,
2013-10-17 10:12:00,42.0,41.0,-100.00,North,3,0.0,0.0,98,0.00,,,-99.99,73.000000,,2013-10-17 17:12:00,
2013-10-17 10:21:00,42.0,41.0,-100.00,North,3,0.0,0.0,98,0.00,,,-99.99,73.000000,,2013-10-17 17:21:00,
2013-10-17 10:53:00,45.0,44.0,-100.00,NNW,342,0.0,2.0,98,0.00,,,0.01,132.000000,,2013-10-17 17:53:00,
2013-10-17 11:02:00,45.0,44.0,-100.00,NNW,342,0.0,2.0,98,0.00,,,0.01,132.000000,,2013-10-17 18:02:00,
2013-10-17 11:11:00,45.0,44.0,-100.00,NNW,342,0.0,2.0,98,0.00,,,0.01,132.000000,,2013-10-17 18:11:00,
2013-10-17 11:21:00,45.0,44.0,-100.00,NNW,342,0.0,2.0,98,0.00,,,0.01,132.000000,,2013-10-17 18:21:00,
2013-10-17 11:32:00,45.0,44.0,-100.00,NNW,342,0.0,2.0,98,0.00,,,0.01,132.000000,,2013-10-17 18:32:00,
2013-10-17 12:11:00,47.0,46.0,-100.00,WSW,252,1.0,3.0,97,0.00,,,0.01,196.000000,,2013-10-17 19:11:00,
2013-10-17 12:21:00,47.0,46.0,-100.00,WSW,252,1.0,3.0,97,0.00,,,0.01,196.000000,,2013-10-17 19:21:00,
2013-10-17 12:31:00,47.0,46.0,-100.00,WSW,252,1.0,3.0,97,0.00,,,0.01,196.000000,,2013-10-17 19:31:00,
2013-10-17 12:53:00,51.0,50.0,-100.00,WSW,243,1.0,4.0,96,0.00,,,0.01,280.000000,,2013-10-17 19:53:00,
2013-10-17 13:02:00,51.0,50.0,-100.00,WSW,243,1.0,4.0,96,0.00,,,0.01,280.000000,,2013-10-17 20:02:00,
2013-10-17 13:11:00,51.0,50.0,-100.00,WSW,243,1.0,4.0,96,0.00,,,0.01,280.000000,,2013-10-17 20:11:00,
2013-10-17 13:22:00,51.0,50.0,-100.00,WSW,243,1.0,4.0,96,0.00,,,0.01,280.000000,,2013-10-17 20:22:00,
2013-10-17 13:32:00,51.0,50.0,-100.00,WSW,243,1.0,4.0,96,0.00,,,0.01,280.000000,,2013-10-17 20:32:00,
2013-10-17 13:33:00,57.0,50.0,-100.00,WSW,243,2.0,6.0,77,0.00,,,0.01,534.000000,,2013-10-17 20:33:00,
2013-10-17 14:11:00,57.0,50.0,-100.00,WSW,243,2.0,6.0,77,0.00,,,0.01,534.000000,,2013-10-17 21:11:00,
2013-10-17 14:21:00,57.0,50.0,-100.00,WSW,243,2.0,6.0,77,0.00,,,0.01,534.000000,,2013-10-17 21:21:00,
2013-10-17 14:33:00,61.0,51.0,-100.00,WSW,258,2.0,6.0,70,0.00,,,0.01,491.000000,,2013-10-17 21:33:00,
2013-10-17 15:24:00,61.0,51.0,-100.00,WSW,258,2.0,6.0,70,0.00,,,0.01,491.000000,,2013-10-17 22:24:00,
2013-10-17 15:33:00,62.0,52.0,-100.00,SW,230,2.0,8.0,69,0.00,,,0.01,338.000000,,2013-10-17 22:33:00,
2013-10-17 16:13:00,62.0,52.0,-100.00,SW,230,2.0,8.0,69,0.00,,,0.01,338.000000,,2013-10-17 23:13:00,
2013-10-17 16:22:00,62.0,52.0,-100.00,SW,230,2.0,8.0,69,0.00,,,0.01,338.000000,,2013-10-17 23:22:00,
2013-10-17 16:53:00,57.0,50.0,-100.00,SW,226,2.0,8.0,78,-99.99,,,0.01,82.000000,,2013-10-17 23:53:00,
2013-10-17 17:02:00,57.0,50.0,-100.00,SW,226,2.0,8.0,78,-99.99,,,0.01,82.000000,,2013-10-18 00:02:00,
2013-10-17 17:12:00,57.0,50.0,-100.00,SW,226,2.0,8.0,78,-99.99,,,0.01,82.000000,,2013-10-18 00:12:00,
2013-10-17 17:22:00,57.0,50.0,-100.00,SW,226,2.0,8.0,78,-99.99,,,0.01,82.000000,,2013-10-18 00:22:00,
2013-10-17 17:32:00,57.0,50.0,-100.00,SW,226,2.0,8.0,78,-99.99,,,0.01,82.000000,,2013-10-18 00:32:00,
2013-10-17 17:53:00,55.0,50.0,-100.00,West,260,1.0,5.0,82,0.00,,,0.01,27.000000,,2013-10-18 00:53:00,
2013-10-17 18:02:00,55.0,50.0,-100.00,West,260,1.0,5.0,82,0.00,,,0.01,27.000000,,2013-10-18 01:02:00,
2013-10-17 18:12:00,55.0,50.0,-100.00,West,260,1.0,5.0,82,0.00,,,0.01,27.000000,,2013-10-18 01:12:00,
2013-10-17 18:21:00,55.0,50.0,-100.00,West,260,1.0,5.0,82,0.00,,,0.01,27.000000,,2013-10-18 01:21:00,
2013-10-17 18:32:00,55.0,50.0,-100.00,West,260,1.0,5.0,82,0.00,,,0.01,27.000000,,2013-10-18 01:32:00,
2013-10-17 18:52:00,51.0,49.0,-100.00,South,183,0.0,5.0,92,0.00,,,0.01,13.000000,,2013-10-18 01:52:00,
2013-10-17 19:02:00,51.0,49.0,-100.00,South,183,0.0,5.0,92,0.00,,,0.01,13.000000,,2013-10-18 02:02:00,
2013-10-17 19:11:00,51.0,49.0,-100.00,South,183,0.0,5.0,92,0.00,,,0.01,13.000000,,2013-10-18 02:11:00,
2013-10-17 19:22:00,51.0,49.0,-100.00,South,183,0.0,5.0,92,0.00,,,0.01,13.000000,,2013-10-18 02:22:00,
2013-10-17 19:32:00,51.0,49.0,-100.00,South,183,0.0,5.0,92,0.00,,,0.01,13.000000,,2013-10-18 02:32:00,
2013-10-17 19:33:00,48.0,47.0,-100.00,South,176,0.0,0.0,97,0.00,,,0.01,1.000000,,2013-10-18 02:33:00,
2013-10-17 19:52:00,48.0,47.0,-100.00,South,176,0.0,0.0,97,0.00,,,0.01,1.000000,,2013-10-18 02:52:00,
2013-10-17 20:03:00,48.0,47.0,-100.00,South,176,0.0,0.0,97,0.00,,,0.01,1.000000,,2013-10-18 03:03:00,
2013-10-17 20:11:00,48.0,47.0,-100.00,South,176,0.0,0.0,97,0.00,,,0.01,1.000000,,2013-10-18 03:11:00,
2013-10-17 20:22:00,48.0,47.0,-100.00,South,176,0.0,0.0,97,0.00,,,0.01,1.000000,,2013-10-18 03:22:00,
2013-10-17 20:33:00,45.0,44.0,-100.00,WNW,297,0.0,1.0,97,0.00,,,0.01,0.000000,,2013-10-18 03:33:00,
2013-10-17 20:55:00,45.0,44.0,-100.00,WNW,297,0.0,1.0,97,0.00,,,0.01,0.000000,,2013-10-18 03:55:00,
2013-10-17 21:05:00,45.0,44.0,-100.00,WNW,297,0.0,1.0,97,0.00,,,0.01,0.000000,,2013-10-18 04:05:00,
2013-10-17 21:14:00,45.0,44.0,-100.00,WNW,297,0.0,1.0,97,0.00,,,0.01,0.000000,,2013-10-18 04:14:00,
2013-10-17 21:24:00,45.0,44.0,-100.00,WNW,297,0.0,1.0,97,0.00,,,0.01,0.000000,,2013-10-18 04:24:00,
2013-10-17 21:33:00,43.0,42.0,-100.00,NW,304,0.0,0.0,97,0.00,,,0.01,0.000000,,2013-10-18 04:33:00,
2013-10-17 21:53:00,43.0,42.0,-100.00,NW,304,0.0,0.0,97,0.00,,,0.01,0.000000,,2013-10-18 04:53:00,
2013-10-17 22:03:00,43.0,42.0,-100.00,NW,304,0.0,0.0,97,0.00,,,0.01,0.000000,,2013-10-18 05:03:00,
2013-10-17 22:12:00,43.0,42.0,-100.00,NW,304,0.0,0.0,97,0.00,,,0.01,0.000000,,2013-10-18 05:12:00,
2013-10-17 22:22:00,43.0,42.0,-100.00,NW,304,0.0,0.0,97,0.00,,,0.01,0.000000,,2013-10-18 05:22:00,
2013-10-17 22:33:00,43.0,42.0,-100.00,WNW,288,0.0,1.0,98,0.00,,,0.01,0.000000,,2013-10-18 05:33:00,
2013-10-17 23:12:00,43.0,42.0,-100.00,WNW,288,0.0,1.0,98,0.00,,,0.01,0.000000,,2013-10-18 06:12:00,
2013-10-17 23:21:00,43.0,42.0,-100.00,WNW,288,0.0,1.0,98,0.00,,,0.01,0.000000,,2013-10-18 06:21:00,
2013-10-17 23:52:00,42.0,41.0,-100.00,NE,45,0.0,2.0,98,0.00,,,0.01,0.000000,,2013-10-18 06:52:00,